createdAt,value
2023-04-28T00:00:08.084Z,6.60
2023-04-28T00:01:07.960Z,6.20
2023-04-28T00:02:07.992Z,11.90
2023-04-28T00:03:08.065Z,11.30
2023-04-28T00:04:08.254Z,7.10
2023-04-28T00:05:08.024Z,11.50
2023-04-28T00:06:08.040Z,6.40
2023-04-28T00:07:07.963Z,11.90
2023-04-28T00:08:07.917Z,7.80
2023-04-28T00:09:07.912Z,6.00
2023-04-28T00:10:07.913Z,10.10
2023-04-28T00:11:07.900Z,10.10
2023-04-28T00:12:07.916Z,6.70
2023-04-28T00:13:07.903Z,7.00
2023-04-28T00:14:07.875Z,13.00
2023-04-28T00:15:07.875Z,9.90
2023-04-28T00:16:07.925Z,13.80
2023-04-28T00:17:07.937Z,9.30
2023-04-28T00:18:07.890Z,15.30
2023-04-28T00:19:07.883Z,9.80
2023-04-28T00:20:07.852Z,6.10
2023-04-28T00:21:07.832Z,6.20
2023-04-28T00:22:07.858Z,6.90
2023-04-28T00:23:07.820Z,6.30
2023-04-28T00:24:07.832Z,10.40
2023-04-28T00:25:07.800Z,7.20
2023-04-28T00:26:08.756Z,6.30
2023-04-28T00:27:07.855Z,11.90
2023-04-28T00:28:07.788Z,7.20
2023-04-28T00:29:07.787Z,7.90
2023-04-28T00:30:07.764Z,8.20
2023-04-28T00:31:07.767Z,12.60
2023-04-28T00:32:07.970Z,9.40
2023-04-28T00:33:07.825Z,6.10
2023-04-28T00:34:07.738Z,7.10
2023-04-28T00:35:07.736Z,6.10
2023-04-28T00:36:07.735Z,6.10
2023-04-28T00:37:07.764Z,5.70
2023-04-28T00:38:07.729Z,9.60
2023-04-28T00:39:07.706Z,11.80
2023-04-28T00:40:07.739Z,6.10
2023-04-28T00:41:07.692Z,8.60
2023-04-28T00:42:08.779Z,8.60
2023-04-28T00:43:07.683Z,8.20
2023-04-28T00:44:07.681Z,5.80
2023-04-28T00:45:07.700Z,8.20
2023-04-28T00:46:07.735Z,12.40
2023-04-28T00:47:07.683Z,7.00
2023-04-28T00:48:07.904Z,10.60
2023-04-28T00:49:07.666Z,12.30
2023-04-28T00:50:07.670Z,8.20
2023-04-28T00:51:07.633Z,12.40
2023-04-28T00:52:07.790Z,6.70
2023-04-28T00:53:07.617Z,10.10
2023-04-28T00:54:07.637Z,6.10
2023-04-28T00:55:07.647Z,13.40
2023-04-28T00:56:07.622Z,10.20
2023-04-28T00:57:07.617Z,8.10
2023-04-28T00:58:07.591Z,6.30
2023-04-28T00:59:07.606Z,7.70
2023-04-28T01:00:07.575Z,7.00
2023-04-28T01:01:07.597Z,12.90
2023-04-28T01:02:07.790Z,6.10
2023-04-28T01:03:07.678Z,5.70
2023-04-28T01:04:07.936Z,7.30
2023-04-28T01:05:07.541Z,12.80
2023-04-28T01:06:07.540Z,7.90
2023-04-28T01:07:08.572Z,9.30
2023-04-28T01:08:07.520Z,8.70
2023-04-28T01:09:07.580Z,9.00
2023-04-28T01:10:07.501Z,13.20
2023-04-28T01:11:07.509Z,13.10
2023-04-28T01:12:07.523Z,10.60
2023-04-28T01:13:07.510Z,9.60
2023-04-28T01:14:07.530Z,9.10
2023-04-28T01:15:07.508Z,8.50
2023-04-28T01:16:07.498Z,8.40
2023-04-28T01:17:07.506Z,8.00
2023-04-28T01:18:07.458Z,10.80
2023-04-28T01:19:07.442Z,6.00
2023-04-28T01:20:07.454Z,11.80
2023-04-28T01:21:07.451Z,9.80
2023-04-28T01:22:07.462Z,8.60
2023-04-28T01:23:07.423Z,6.50
2023-04-28T01:24:08.431Z,12.10
2023-04-28T01:25:07.433Z,10.10
2023-04-28T01:26:07.397Z,8.80
2023-04-28T01:27:07.414Z,15.20
2023-04-28T01:28:07.382Z,6.90
2023-04-28T01:29:07.420Z,6.50
2023-04-28T01:30:07.364Z,8.20
2023-04-28T01:31:07.429Z,6.60
2023-04-28T01:32:07.375Z,14.10
2023-04-28T01:33:07.440Z,10.70
2023-04-28T01:34:07.350Z,8.20
2023-04-28T01:35:07.351Z,8.40
2023-04-28T01:36:07.329Z,6.30
2023-04-28T01:37:07.375Z,7.70
2023-04-28T01:38:07.311Z,11.70
2023-04-28T01:39:07.309Z,8.20
2023-04-28T01:40:07.325Z,6.00
2023-04-28T01:41:07.314Z,11.80
2023-04-28T01:42:07.326Z,5.40
2023-04-28T01:43:07.296Z,8.60
2023-04-28T01:44:07.288Z,5.70
2023-04-28T01:45:07.285Z,11.10
2023-04-28T01:46:07.340Z,12.20
2023-04-28T01:47:07.280Z,10.40
2023-04-28T01:48:08.308Z,5.80
2023-04-28T01:49:07.242Z,5.60
2023-04-28T01:50:07.270Z,10.00
2023-04-28T01:51:07.224Z,12.20
2023-04-28T01:52:07.314Z,8.20
2023-04-28T01:53:07.217Z,5.70
2023-04-28T01:54:07.212Z,6.50
2023-04-28T01:55:07.212Z,7.80
2023-04-28T01:56:07.196Z,9.70
2023-04-28T01:57:07.209Z,11.60
2023-04-28T01:58:07.232Z,8.80
2023-04-28T01:59:07.178Z,13.40
2023-04-28T02:00:07.165Z,14.30
2023-04-28T02:01:07.215Z,6.20
2023-04-28T02:02:07.285Z,5.70
2023-04-28T02:03:07.229Z,9.20
2023-04-28T02:04:07.212Z,6.70
2023-04-28T02:05:07.163Z,8.00
2023-04-28T02:06:07.116Z,5.90
2023-04-28T02:07:07.146Z,7.00
2023-04-28T02:08:07.131Z,11.70
2023-04-28T02:09:07.126Z,9.20
2023-04-28T02:10:07.111Z,8.80
2023-04-28T02:11:07.118Z,6.10
2023-04-28T02:12:07.085Z,13.00
2023-04-28T02:13:07.094Z,8.60
2023-04-28T02:14:07.095Z,10.00
2023-04-28T02:15:07.051Z,6.10
2023-04-28T02:16:07.139Z,15.30
2023-04-28T02:17:07.041Z,12.30
2023-04-28T02:18:07.076Z,12.50
2023-04-28T02:19:07.023Z,6.10
2023-04-28T02:20:07.015Z,7.20
2023-04-28T02:21:07.035Z,13.70
2023-04-28T02:22:07.012Z,9.40
2023-04-28T02:23:07.010Z,8.00
2023-04-28T02:24:07.020Z,8.20
2023-04-28T02:25:06.985Z,9.90
2023-04-28T02:26:06.994Z,9.60
2023-04-28T02:27:06.971Z,6.20
2023-04-28T02:28:06.988Z,5.10
2023-04-28T02:29:08.308Z,5.50
2023-04-28T02:30:06.948Z,7.90
2023-04-28T02:31:06.976Z,8.10
2023-04-28T02:32:06.934Z,11.60
2023-04-28T02:33:06.975Z,5.30
2023-04-28T02:34:06.913Z,10.40
2023-04-28T02:35:06.942Z,7.90
2023-04-28T02:36:06.899Z,9.70
2023-04-28T02:37:06.897Z,9.60
2023-04-28T02:38:06.894Z,9.00
2023-04-28T02:39:07.888Z,17.40
2023-04-28T02:40:06.872Z,6.90
2023-04-28T02:41:06.870Z,11.10
2023-04-28T02:42:06.849Z,11.30
2023-04-28T02:43:06.868Z,8.90
2023-04-28T02:44:06.843Z,10.40
2023-04-28T02:45:06.857Z,12.90
2023-04-28T02:46:06.844Z,7.60
2023-04-28T02:47:06.919Z,7.70
2023-04-28T02:48:06.943Z,10.30
2023-04-28T02:49:06.819Z,11.50
2023-04-28T02:50:06.829Z,9.70
2023-04-28T02:51:06.789Z,7.90
2023-04-28T02:52:06.782Z,6.50
2023-04-28T02:53:07.860Z,12.40
2023-04-28T02:54:06.773Z,8.40
2023-04-28T02:55:06.778Z,8.60
2023-04-28T02:56:06.861Z,11.00
2023-04-28T02:57:06.765Z,10.30
2023-04-28T02:58:06.756Z,7.60
2023-04-28T02:59:07.057Z,11.10
2023-04-28T03:00:06.872Z,19.20
2023-04-28T03:01:06.739Z,10.90
2023-04-28T03:02:06.792Z,11.70
2023-04-28T03:03:06.828Z,10.30
2023-04-28T03:04:07.040Z,10.70
2023-04-28T03:05:06.927Z,6.90
2023-04-28T03:06:06.787Z,11.50
2023-04-28T03:07:06.765Z,8.30
2023-04-28T03:08:06.911Z,11.00
2023-04-28T03:09:06.822Z,11.10
2023-04-28T03:10:06.738Z,8.50
2023-04-28T03:11:06.783Z,8.90
2023-04-28T03:12:06.959Z,8.70
2023-04-28T03:13:06.758Z,7.60
2023-04-28T03:14:06.674Z,8.40
2023-04-28T03:15:06.700Z,7.30
2023-04-28T03:16:06.705Z,12.80
2023-04-28T03:17:06.654Z,8.80
2023-04-28T03:18:06.887Z,11.40
2023-04-28T03:19:06.629Z,9.90
2023-04-28T03:20:06.630Z,8.20
2023-04-28T03:21:06.604Z,9.20
2023-04-28T03:22:06.610Z,10.00
2023-04-28T03:23:06.609Z,6.90
2023-04-28T03:24:06.582Z,11.10
2023-04-28T03:25:06.602Z,8.60
2023-04-28T03:26:06.634Z,10.90
2023-04-28T03:27:06.564Z,12.60
2023-04-28T03:28:06.590Z,7.00
2023-04-28T03:29:06.554Z,8.90
2023-04-28T03:30:06.557Z,9.40
2023-04-28T03:31:06.551Z,10.40
2023-04-28T03:32:06.688Z,14.70
2023-04-28T03:33:06.580Z,10.20
2023-04-28T03:34:06.517Z,10.00
2023-04-28T03:35:06.522Z,14.40
2023-04-28T03:36:06.505Z,9.30
2023-04-28T03:37:06.513Z,10.80
2023-04-28T03:38:07.309Z,14.50
2023-04-28T03:39:07.224Z,11.50
2023-04-28T03:40:06.509Z,9.10
2023-04-28T03:41:07.234Z,11.80
2023-04-28T03:42:06.586Z,9.80
2023-04-28T03:43:06.539Z,12.30
2023-04-28T03:44:06.531Z,14.30
2023-04-28T03:45:06.553Z,11.80
2023-04-28T03:46:06.514Z,11.90
2023-04-28T03:47:07.235Z,10.00
2023-04-28T03:48:06.712Z,13.30
2023-04-28T03:49:06.441Z,12.90
2023-04-28T03:50:06.518Z,10.30
2023-04-28T03:51:06.476Z,9.80
2023-04-28T03:52:07.223Z,22.40
2023-04-28T03:53:07.313Z,7.70
2023-04-28T03:54:07.267Z,10.40
2023-04-28T03:55:06.377Z,15.60
2023-04-28T03:56:06.417Z,18.40
2023-04-28T03:57:07.938Z,10.40
2023-04-28T03:58:06.469Z,16.10
2023-04-28T03:59:06.449Z,12.00
2023-04-28T04:00:06.466Z,9.50
2023-04-28T04:01:06.441Z,12.30
2023-04-28T04:02:06.540Z,11.20
2023-04-28T04:03:06.530Z,13.80
2023-04-28T04:04:06.500Z,13.20
2023-04-28T04:05:07.318Z,12.70
2023-04-28T04:06:06.320Z,9.70
2023-04-28T04:07:06.304Z,9.60
2023-04-28T04:08:06.316Z,14.50
2023-04-28T04:09:06.317Z,10.80
2023-04-28T04:10:06.267Z,11.20
2023-04-28T04:11:06.257Z,12.70
2023-04-28T04:12:06.272Z,25.50
2023-04-28T04:13:06.306Z,27.10
2023-04-28T04:14:06.231Z,13.30
2023-04-28T04:15:06.248Z,41.40
2023-04-28T04:16:06.260Z,16.70
2023-04-28T04:17:06.215Z,20.90
2023-04-28T04:18:08.354Z,23.30
2023-04-28T04:19:07.223Z,13.10
2023-04-28T04:20:06.251Z,15.60
2023-04-28T04:21:06.195Z,19.70
2023-04-28T04:22:07.254Z,18.00
2023-04-28T04:23:06.357Z,11.40
2023-04-28T04:24:06.708Z,17.00
2023-04-28T04:25:07.217Z,26.90
2023-04-28T04:26:07.223Z,20.80
2023-04-28T04:27:06.717Z,19.40
2023-04-28T04:28:06.756Z,13.50
2023-04-28T04:29:07.211Z,20.00
2023-04-28T04:30:07.215Z,11.40
2023-04-28T04:31:06.369Z,15.80
2023-04-28T04:32:07.260Z,12.00
2023-04-28T04:33:06.288Z,11.90
2023-04-28T04:34:06.216Z,15.60
2023-04-28T04:35:06.193Z,21.50
2023-04-28T04:36:06.096Z,19.70
2023-04-28T04:37:06.124Z,15.20
2023-04-28T04:38:06.156Z,20.20
2023-04-28T04:39:06.111Z,13.00
2023-04-28T04:40:06.068Z,13.80
2023-04-28T04:41:06.085Z,19.00
2023-04-28T04:42:17.150Z,11.00
2023-04-28T04:43:08.059Z,16.90
2023-04-28T04:44:06.089Z,10.50
2023-04-28T04:45:06.112Z,12.90
2023-04-28T04:46:06.060Z,15.50
2023-04-28T04:47:06.056Z,15.20
2023-04-28T04:48:06.085Z,17.10
2023-04-28T04:49:06.021Z,13.50
2023-04-28T04:50:06.028Z,12.30
2023-04-28T04:51:06.014Z,15.10
2023-04-28T04:52:05.986Z,13.30
2023-04-28T04:53:06.031Z,15.70
2023-04-28T04:54:05.979Z,18.20
2023-04-28T04:55:06.005Z,16.90
2023-04-28T04:56:05.984Z,13.30
2023-04-28T04:57:05.956Z,16.80
2023-04-28T04:58:06.008Z,10.30
2023-04-28T04:59:05.951Z,15.80
2023-04-28T05:00:05.944Z,17.50
2023-04-28T05:01:05.930Z,10.70
2023-04-28T05:02:05.973Z,15.20
2023-04-28T05:03:06.032Z,19.10
2023-04-28T05:04:06.087Z,11.00
2023-04-28T05:05:19.877Z,12.70
2023-04-28T05:06:07.890Z,13.70
2023-04-28T05:07:05.896Z,13.10
2023-04-28T05:08:05.905Z,10.30
2023-04-28T05:09:05.937Z,13.60
2023-04-28T05:10:05.869Z,13.00
2023-04-28T05:11:05.883Z,17.80
2023-04-28T05:12:05.864Z,10.80
2023-04-28T05:13:05.893Z,12.90
2023-04-28T05:14:05.856Z,27.50
2023-04-28T05:15:05.865Z,12.60
2023-04-28T05:16:05.880Z,10.90
2023-04-28T05:17:05.816Z,14.20
2023-04-28T05:18:05.995Z,20.30
2023-04-28T05:19:05.811Z,14.40
2023-04-28T05:20:05.806Z,14.10
2023-04-28T05:21:05.797Z,14.00
2023-04-28T05:22:05.779Z,15.60
2023-04-28T05:23:05.863Z,16.30
2023-04-28T05:24:05.799Z,16.50
2023-04-28T05:25:05.786Z,22.60
2023-04-28T05:26:05.787Z,15.40
2023-04-28T05:27:05.800Z,21.20
2023-04-28T05:28:05.794Z,13.70
2023-04-28T05:29:05.773Z,13.60
2023-04-28T05:30:05.732Z,21.90
2023-04-28T05:31:05.726Z,17.00
2023-04-28T05:32:05.769Z,12.70
2023-04-28T05:33:05.833Z,17.80
2023-04-28T05:34:05.750Z,17.10
2023-04-28T05:35:05.705Z,27.00
2023-04-28T05:36:05.678Z,17.20
2023-04-28T05:37:05.689Z,21.20
2023-04-28T05:38:05.729Z,72.10
2023-04-28T05:39:05.684Z,88.40
2023-04-28T05:40:05.660Z,125.70
2023-04-28T05:41:05.650Z,78.40
2023-04-28T05:42:05.652Z,62.00
2023-04-28T05:43:05.693Z,31.30
2023-04-28T05:44:05.675Z,37.40
2023-04-28T05:45:05.636Z,31.80
2023-04-28T05:46:12.121Z,33.70
2023-04-28T05:47:07.637Z,25.10
2023-04-28T05:48:05.678Z,23.20
2023-04-28T05:49:05.605Z,27.10
2023-04-28T05:50:05.620Z,33.90
2023-04-28T05:51:05.604Z,25.60
2023-04-28T05:52:05.617Z,23.40
2023-04-28T05:53:05.672Z,23.20
2023-04-28T05:54:05.569Z,18.70
2023-04-28T05:55:05.572Z,14.30
2023-04-28T05:56:05.541Z,17.60
2023-04-28T05:57:05.640Z,12.60
2023-04-28T05:58:05.575Z,14.30
2023-04-28T05:59:05.535Z,13.60
2023-04-28T06:00:05.540Z,13.20
2023-04-28T06:01:05.679Z,14.60
2023-04-28T06:02:05.534Z,10.80
2023-04-28T06:03:05.771Z,12.20
2023-04-28T06:04:05.910Z,12.90
2023-04-28T06:05:05.620Z,14.10
2023-04-28T06:06:09.783Z,16.00
2023-04-28T06:07:06.491Z,14.40
2023-04-28T06:08:05.496Z,11.70
2023-04-28T06:09:05.477Z,12.10
2023-04-28T06:10:05.482Z,13.00
2023-04-28T06:11:05.438Z,14.40
2023-04-28T06:12:06.458Z,25.10
2023-04-28T06:13:05.488Z,16.20
2023-04-28T06:14:05.427Z,15.00
2023-04-28T06:15:05.499Z,12.80
2023-04-28T06:16:05.498Z,12.00
2023-04-28T06:17:05.455Z,14.70
2023-04-28T06:18:05.552Z,12.90
2023-04-28T06:19:05.405Z,16.00
2023-04-28T06:20:05.379Z,12.60
2023-04-28T06:21:05.418Z,12.40
2023-04-28T06:22:05.375Z,13.00
2023-04-28T06:23:05.373Z,13.20
2023-04-28T06:24:05.382Z,13.60
2023-04-28T06:25:05.329Z,14.20
2023-04-28T06:26:05.323Z,13.40
2023-04-28T06:27:05.356Z,14.20
2023-04-28T06:28:05.339Z,16.70
2023-04-28T06:29:05.302Z,21.10
2023-04-28T06:30:05.316Z,12.10
2023-04-28T06:31:05.360Z,13.60
2023-04-28T06:32:05.313Z,12.40
2023-04-28T06:33:05.377Z,12.10
2023-04-28T06:34:05.276Z,14.20
2023-04-28T06:35:05.299Z,11.60
2023-04-28T06:36:05.313Z,15.20
2023-04-28T06:37:05.255Z,16.80
2023-04-28T06:38:05.275Z,9.90
2023-04-28T06:39:05.224Z,12.40
2023-04-28T06:40:05.255Z,10.50
2023-04-28T06:41:05.253Z,10.20
2023-04-28T06:42:05.246Z,14.20
2023-04-28T06:43:05.225Z,14.60
2023-04-28T06:44:05.200Z,11.90
2023-04-28T06:45:05.199Z,13.90
2023-04-28T06:46:05.198Z,13.60
2023-04-28T06:47:05.261Z,15.50
2023-04-28T06:48:05.210Z,13.00
2023-04-28T06:49:05.172Z,24.60
2023-04-28T06:50:06.184Z,13.10
2023-04-28T06:51:05.185Z,18.50
2023-04-28T06:52:05.149Z,12.60
2023-04-28T06:53:05.184Z,21.90
2023-04-28T06:54:05.146Z,22.70
2023-04-28T06:55:05.128Z,15.10
2023-04-28T06:56:05.131Z,14.70
2023-04-28T06:57:05.100Z,18.50
2023-04-28T06:58:05.132Z,11.90
2023-04-28T06:59:05.278Z,12.70
2023-04-28T07:00:05.118Z,11.50
2023-04-28T07:01:05.117Z,13.40
2023-04-28T07:02:05.137Z,20.30
2023-04-28T07:03:05.255Z,16.70
2023-04-28T07:04:05.195Z,15.20
2023-04-28T07:05:05.086Z,16.20
2023-04-28T07:06:05.130Z,12.20
2023-04-28T07:07:05.059Z,15.90
2023-04-28T07:08:05.084Z,16.60
2023-04-28T07:09:05.017Z,17.00
2023-04-28T07:10:05.075Z,23.10
2023-04-28T07:11:05.219Z,16.60
2023-04-28T07:12:05.223Z,17.10
2023-04-28T07:13:05.016Z,15.10
2023-04-28T07:14:05.011Z,19.40
2023-04-28T07:15:04.977Z,18.20
2023-04-28T07:16:05.018Z,20.90
2023-04-28T07:17:04.972Z,22.90
2023-04-28T07:18:05.022Z,17.00
2023-04-28T07:19:05.007Z,16.10
2023-04-28T07:20:04.957Z,15.50
2023-04-28T07:21:05.650Z,16.10
2023-04-28T07:22:05.959Z,17.00
2023-04-28T07:23:04.962Z,14.70
2023-04-28T07:24:05.705Z,18.40
2023-04-28T07:25:04.899Z,19.20
2023-04-28T07:26:05.916Z,24.00
2023-04-28T07:27:04.904Z,19.50
2023-04-28T07:28:04.936Z,18.50
2023-04-28T07:29:05.589Z,15.60
2023-04-28T07:30:15.184Z,18.00
2023-04-28T07:31:06.861Z,18.10
2023-04-28T07:32:06.848Z,17.80
2023-04-28T07:33:05.899Z,16.00
2023-04-28T07:34:05.857Z,17.40
2023-04-28T07:35:04.837Z,16.10
2023-04-28T07:36:04.834Z,22.90
2023-04-28T07:37:04.818Z,18.50
2023-04-28T07:38:04.832Z,10.60
2023-04-28T07:39:04.838Z,12.60
2023-04-28T07:40:04.877Z,15.50
2023-04-28T07:41:05.814Z,16.30
2023-04-28T07:42:05.008Z,14.40
2023-04-28T07:43:06.178Z,14.20
2023-04-28T07:44:04.784Z,15.80
2023-04-28T07:45:04.852Z,17.10
2023-04-28T07:46:04.899Z,15.70
2023-04-28T07:47:04.848Z,10.60
2023-04-28T07:48:04.853Z,15.30
2023-04-28T07:49:04.816Z,19.20
2023-04-28T07:50:04.732Z,13.10
2023-04-28T07:51:04.723Z,13.30
2023-04-28T07:52:04.702Z,15.90
2023-04-28T07:53:04.924Z,17.00
2023-04-28T07:54:04.752Z,18.40
2023-04-28T07:55:04.686Z,14.30
2023-04-28T07:56:04.696Z,13.80
2023-04-28T07:57:04.675Z,12.20
2023-04-28T07:58:04.718Z,19.70
2023-04-28T07:59:04.674Z,17.10
2023-04-28T08:00:04.658Z,15.60
2023-04-28T08:01:04.665Z,15.60
2023-04-28T08:02:04.677Z,17.60
2023-04-28T08:03:04.859Z,18.70
2023-04-28T08:04:04.930Z,19.80
2023-04-28T08:05:04.746Z,25.20
2023-04-28T08:06:04.784Z,19.10
2023-04-28T08:07:04.620Z,17.00
2023-04-28T08:08:04.622Z,18.80
2023-04-28T08:09:04.602Z,17.30
2023-04-28T08:10:04.576Z,22.50
2023-04-28T08:11:04.595Z,20.70
2023-04-28T08:12:04.567Z,14.10
2023-04-28T08:13:04.581Z,18.10
2023-04-28T08:14:04.591Z,14.70
2023-04-28T08:15:04.579Z,18.90
2023-04-28T08:16:04.711Z,16.90
2023-04-28T08:17:04.532Z,18.40
2023-04-28T08:18:04.592Z,15.80
2023-04-28T08:19:04.691Z,19.30
2023-04-28T08:20:04.515Z,15.10
2023-04-28T08:21:04.511Z,18.00
2023-04-28T08:22:04.540Z,15.70
2023-04-28T08:23:04.519Z,16.80
2023-04-28T08:24:04.492Z,15.40
2023-04-28T08:25:04.553Z,18.30
2023-04-28T08:26:04.488Z,16.10
2023-04-28T08:27:04.473Z,20.10
2023-04-28T08:28:04.503Z,17.50
2023-04-28T08:29:04.452Z,18.90
2023-04-28T08:30:04.460Z,16.40
2023-04-28T08:31:04.466Z,13.20
2023-04-28T08:32:04.455Z,17.40
2023-04-28T08:33:05.710Z,19.10
2023-04-28T08:34:04.456Z,16.60
2023-04-28T08:35:04.413Z,16.10
2023-04-28T08:36:04.410Z,12.30
2023-04-28T08:37:04.473Z,11.70
2023-04-28T08:38:04.392Z,10.70
2023-04-28T08:39:04.423Z,13.00
2023-04-28T08:40:04.379Z,13.00
2023-04-28T08:41:04.385Z,12.50
2023-04-28T08:42:04.399Z,12.00
2023-04-28T08:43:04.357Z,10.10
2023-04-28T08:44:04.366Z,10.50
2023-04-28T08:45:04.340Z,9.70
2023-04-28T08:46:04.404Z,12.60
2023-04-28T08:47:04.366Z,14.00
2023-04-28T08:48:04.350Z,12.00
2023-04-28T08:49:04.326Z,13.40
2023-04-28T08:50:04.316Z,14.00
2023-04-28T08:51:04.296Z,13.20
2023-04-28T08:52:04.321Z,16.70
2023-04-28T08:53:04.289Z,10.00
2023-04-28T08:54:24.818Z,12.30
2023-04-28T08:55:06.270Z,15.40
2023-04-28T08:56:04.282Z,11.00
2023-04-28T08:57:04.309Z,16.30
2023-04-28T08:58:04.288Z,20.20
2023-04-28T08:59:04.241Z,13.20
2023-04-28T09:00:04.235Z,12.30
2023-04-28T09:01:04.256Z,12.30
2023-04-28T09:02:04.367Z,14.50
2023-04-28T09:03:05.336Z,12.70
2023-04-28T09:04:05.508Z,13.00
2023-04-28T09:05:04.350Z,12.20
2023-04-28T09:06:04.208Z,14.50
2023-04-28T09:07:04.269Z,12.70
2023-04-28T09:08:04.182Z,13.80
2023-04-28T09:09:04.192Z,11.80
2023-04-28T09:10:04.202Z,11.30
2023-04-28T09:11:04.188Z,12.90
2023-04-28T09:12:04.195Z,17.00
2023-04-28T09:13:04.152Z,10.90
2023-04-28T09:14:04.152Z,14.80
2023-04-28T09:15:04.129Z,11.40
2023-04-28T09:16:04.264Z,12.70
2023-04-28T09:17:04.155Z,17.40
2023-04-28T09:18:04.183Z,12.30
2023-04-28T09:19:04.110Z,14.70
2023-04-28T09:20:04.154Z,17.80
2023-04-28T09:21:04.128Z,13.10
2023-04-28T09:22:17.753Z,12.80
2023-04-28T09:23:06.152Z,13.60
2023-04-28T09:24:04.083Z,11.30
2023-04-28T09:25:04.076Z,12.40
2023-04-28T09:26:04.072Z,11.00
2023-04-28T09:27:04.073Z,15.80
2023-04-28T09:28:04.083Z,10.70
2023-04-28T09:29:04.067Z,12.00
2023-04-28T09:30:04.039Z,19.30
2023-04-28T09:31:04.119Z,13.00
2023-04-28T09:32:04.088Z,12.70
2023-04-28T09:33:04.127Z,21.90
2023-04-28T09:34:04.244Z,13.40
2023-04-28T09:35:03.994Z,11.80
2023-04-28T09:36:03.992Z,12.20
2023-04-28T09:37:03.997Z,16.50
2023-04-28T09:38:04.024Z,13.20
2023-04-28T09:39:04.018Z,15.70
2023-04-28T09:40:03.987Z,15.00
2023-04-28T09:41:03.974Z,14.70
2023-04-28T09:42:03.965Z,14.30
2023-04-28T09:43:15.116Z,15.80
2023-04-28T09:44:05.933Z,20.20
2023-04-28T09:45:03.956Z,16.50
2023-04-28T09:46:03.988Z,16.20
2023-04-28T09:47:03.925Z,20.20
2023-04-28T09:48:03.979Z,22.60
2023-04-28T09:49:03.910Z,21.10
2023-04-28T09:50:03.901Z,32.90
2023-04-28T09:51:03.901Z,21.40
2023-04-28T09:52:03.902Z,16.70
2023-04-28T09:53:04.192Z,18.10
2023-04-28T09:54:03.866Z,16.50
2023-04-28T09:55:03.873Z,13.40
2023-04-28T09:56:03.857Z,14.00
2023-04-28T09:57:04.247Z,13.70
2023-04-28T09:58:03.880Z,11.80
2023-04-28T09:59:03.853Z,12.70
2023-04-28T10:00:03.827Z,12.00
2023-04-28T10:01:03.872Z,13.30
2023-04-28T10:02:15.374Z,11.20
2023-04-28T10:03:05.903Z,10.10
2023-04-28T10:04:03.941Z,9.50
2023-04-28T10:05:04.150Z,8.40
2023-04-28T10:06:04.785Z,8.70
2023-04-28T10:07:03.792Z,9.80
2023-04-28T10:08:03.810Z,9.90
2023-04-28T10:09:03.819Z,9.20
2023-04-28T10:10:03.787Z,9.00
2023-04-28T10:11:03.781Z,8.00
2023-04-28T10:12:03.776Z,8.60
2023-04-28T10:13:03.773Z,9.40
2023-04-28T10:14:03.745Z,8.60
2023-04-28T10:15:03.708Z,11.00
2023-04-28T10:16:03.781Z,34.90
2023-04-28T10:17:03.716Z,13.30
2023-04-28T10:18:03.822Z,9.80
2023-04-28T10:19:03.704Z,8.60
2023-04-28T10:20:03.702Z,8.50
2023-04-28T10:21:03.690Z,8.20
2023-04-28T10:22:03.677Z,9.20
2023-04-28T10:23:03.678Z,8.30
2023-04-28T10:24:03.765Z,8.90
2023-04-28T10:25:03.678Z,10.10
2023-04-28T10:26:03.658Z,8.30
2023-04-28T10:27:03.641Z,8.40
2023-04-28T10:28:03.648Z,11.60
2023-04-28T10:29:03.626Z,9.00
2023-04-28T10:30:05.128Z,10.50
2023-04-28T10:31:03.632Z,9.80
2023-04-28T10:32:03.617Z,7.80
2023-04-28T10:33:03.700Z,13.40
2023-04-28T10:34:03.596Z,9.90
2023-04-28T10:35:03.580Z,9.90
2023-04-28T10:36:04.595Z,11.50
2023-04-28T10:37:03.615Z,10.40
2023-04-28T10:38:03.634Z,9.70
2023-04-28T10:39:03.571Z,10.30
2023-04-28T10:40:03.587Z,11.00
2023-04-28T10:41:03.556Z,8.20
2023-04-28T10:42:03.534Z,8.60
2023-04-28T10:43:03.566Z,12.10
2023-04-28T10:44:03.521Z,12.00
2023-04-28T10:45:03.550Z,10.00
2023-04-28T10:46:03.559Z,8.80
2023-04-28T10:47:03.506Z,10.50
2023-04-28T10:48:03.549Z,8.10
2023-04-28T10:49:03.492Z,11.70
2023-04-28T10:50:03.484Z,8.60
2023-04-28T10:51:03.485Z,11.40
2023-04-28T10:52:03.465Z,9.60
2023-04-28T10:53:03.488Z,9.00
2023-04-28T10:54:03.454Z,12.20
2023-04-28T10:55:12.481Z,9.30
2023-04-28T10:56:05.465Z,9.00
2023-04-28T10:57:03.446Z,9.10
2023-04-28T10:58:03.443Z,8.10
2023-04-28T10:59:03.437Z,12.10
2023-04-28T11:00:03.438Z,8.80
2023-04-28T11:01:03.426Z,8.30
2023-04-28T11:02:03.425Z,11.20
2023-04-28T11:03:03.512Z,11.10
2023-04-28T11:04:03.632Z,10.60
2023-04-28T11:05:03.450Z,10.70
2023-04-28T11:06:03.375Z,12.40
2023-04-28T11:07:03.360Z,7.90
2023-04-28T11:08:03.373Z,9.10
2023-04-28T11:09:03.371Z,12.10
2023-04-28T11:10:03.335Z,8.60
2023-04-28T11:11:03.336Z,11.40
2023-04-28T11:12:03.334Z,9.10
2023-04-28T11:13:03.331Z,8.00
2023-04-28T11:14:03.336Z,7.50
2023-04-28T11:15:03.328Z,8.30
2023-04-28T11:16:03.351Z,7.80
2023-04-28T11:17:03.316Z,10.20
2023-04-28T11:18:03.340Z,8.80
2023-04-28T11:19:03.276Z,8.30
2023-04-28T11:20:03.272Z,8.60
2023-04-28T11:21:03.257Z,10.30
2023-04-28T11:22:03.258Z,8.80
2023-04-28T11:23:03.272Z,7.20
2023-04-28T11:24:03.263Z,8.50
2023-04-28T11:25:03.244Z,7.80
2023-04-28T11:26:03.239Z,7.70
2023-04-28T11:27:03.221Z,8.00
2023-04-28T11:28:03.244Z,10.90
2023-04-28T11:29:03.228Z,8.40
2023-04-28T11:30:03.213Z,9.00
2023-04-28T11:31:03.209Z,10.30
2023-04-28T11:32:03.204Z,8.50
2023-04-28T11:33:03.258Z,8.00
2023-04-28T11:34:03.172Z,7.50
2023-04-28T11:35:03.167Z,8.20
2023-04-28T11:36:03.221Z,9.00
2023-04-28T11:37:03.151Z,8.60
2023-04-28T11:38:03.148Z,8.90
2023-04-28T11:39:03.157Z,7.80
2023-04-28T11:40:03.136Z,7.30
2023-04-28T11:41:03.113Z,7.20
2023-04-28T11:42:03.152Z,6.60
2023-04-28T11:43:03.184Z,9.40
2023-04-28T11:44:03.189Z,7.10
2023-04-28T11:45:03.129Z,8.70
2023-04-28T11:46:03.173Z,12.00
2023-04-28T11:47:03.699Z,10.20
2023-04-28T11:48:03.149Z,10.40
2023-04-28T11:49:03.098Z,10.00
2023-04-28T11:50:03.270Z,8.10
2023-04-28T11:51:04.055Z,7.10
2023-04-28T11:52:03.037Z,7.20
2023-04-28T11:53:03.094Z,10.50
2023-04-28T11:54:04.049Z,8.60
2023-04-28T11:55:03.030Z,6.80
2023-04-28T11:56:03.022Z,7.30
2023-04-28T11:57:03.018Z,7.70
2023-04-28T11:58:03.334Z,7.30
2023-04-28T11:59:03.860Z,7.70
2023-04-28T12:00:03.992Z,12.90
2023-04-28T12:01:02.979Z,9.10
2023-04-28T12:02:03.023Z,10.20
2023-04-28T12:03:03.159Z,10.90
2023-04-28T12:04:03.048Z,9.20
2023-04-28T12:05:03.001Z,7.80
2023-04-28T12:06:03.068Z,8.00
2023-04-28T12:07:02.964Z,7.60
2023-04-28T12:08:02.961Z,7.30
2023-04-28T12:09:02.945Z,7.70
2023-04-28T12:10:02.927Z,8.60
2023-04-28T12:11:02.923Z,7.80
2023-04-28T12:12:03.062Z,11.80
2023-04-28T12:13:02.910Z,9.20
2023-04-28T12:14:02.943Z,8.40
2023-04-28T12:15:02.979Z,8.70
2023-04-28T12:16:02.882Z,10.50
2023-04-28T12:17:02.883Z,9.30
2023-04-28T12:18:02.916Z,9.50
2023-04-28T12:19:02.883Z,9.40
2023-04-28T12:20:02.860Z,14.30
2023-04-28T12:21:02.871Z,11.10
2023-04-28T12:22:02.890Z,11.40
2023-04-28T12:23:02.928Z,9.40
2023-04-28T12:24:02.899Z,10.70
2023-04-28T12:25:02.823Z,10.70
2023-04-28T12:26:02.820Z,13.40
2023-04-28T12:27:02.840Z,10.50
2023-04-28T12:28:03.005Z,9.60
2023-04-28T12:29:02.812Z,10.50
2023-04-28T12:30:02.810Z,9.40
2023-04-28T12:31:02.795Z,10.20
2023-04-28T12:32:02.794Z,11.70
2023-04-28T12:33:02.809Z,9.60
2023-04-28T12:34:02.777Z,9.20
2023-04-28T12:35:02.766Z,8.50
2023-04-28T12:36:02.769Z,10.90
2023-04-28T12:37:02.732Z,8.80
2023-04-28T12:38:02.793Z,8.80
2023-04-28T12:39:02.748Z,9.20
2023-04-28T12:40:02.750Z,9.10
2023-04-28T12:41:02.718Z,18.00
2023-04-28T12:42:02.712Z,8.60
2023-04-28T12:43:02.704Z,8.80
2023-04-28T12:44:02.713Z,10.60
2023-04-28T12:45:02.689Z,9.40
2023-04-28T12:46:02.704Z,9.00
2023-04-28T12:47:02.674Z,9.10
2023-04-28T12:48:02.729Z,9.50
2023-04-28T12:49:02.680Z,10.20
2023-04-28T12:50:02.651Z,8.90
2023-04-28T12:51:02.642Z,10.60
2023-04-28T12:52:02.655Z,13.00
2023-04-28T12:53:02.626Z,10.40
2023-04-28T12:54:02.644Z,13.10
2023-04-28T12:55:02.619Z,9.30
2023-04-28T12:56:02.622Z,8.60
2023-04-28T12:57:02.598Z,9.20
2023-04-28T12:58:02.597Z,8.40
2023-04-28T12:59:02.619Z,8.40
2023-04-28T13:00:02.583Z,8.00
2023-04-28T13:01:02.591Z,8.30